Ir al Módulo  



logo_vatsim
logo_vatsur

 


Corredor NorOccidental
Julio 23 de 2015

Los esperamos todos los Domingos con Full control entre Colombia, Venezuela y Ecuador!!




¿Quiéres ser ATC?
Junio 18 de 2015






Nuevo Escenario de Bogotá Recomendado
Septiembre 26 de 2014

Los invitamos a conocer el escenario desarrollado por LR30 Scenery Design de SKBO. Vatsim Colombia lo reconoce como escenario oficial de la red.

Links:

FS9: http://www.mediafire.com/download/gfuqcb7qb8r9q9n/BOG_2014_FS9.rar
FSX: http://www.mediafire.com/download/b8831kleqc5nc13/LR30_SKBO_V2.rar




 

 
Untitled Document
SKAR 020400Z 00000KT 9999 FEW030 20/18 A3012
SKBG 020400Z 00000KT 9999 FEW015 BKN080 23/18 A3007
SKBO 020400Z 00000KT 9999 BKN020 11/07 A3044
SKBQ 020400Z 36005KT 9999 SCT012 SCT080 28/26 A2988
SKCG 020400Z 01004KT 9999 FEW015 SCT200 28/26 A2987
SKCL 020400Z 04008KT CAVOK 21/18 A3004
SKPE 020400Z 08007KT 9999 FEW015 20/17 A3010
SKRG 020400Z 00000KT 9999 FEW015 SCT080 14/13 A3038